createdAt,value
2023-04-29T00:01:21.794Z,12.30
2023-04-29T00:03:50.560Z,12.30
2023-04-29T00:06:18.799Z,12.30
2023-04-29T00:08:46.812Z,12.20
2023-04-29T00:11:14.816Z,12.20
2023-04-29T00:13:42.908Z,12.20
2023-04-29T00:16:11.238Z,12.20
2023-04-29T00:18:40.727Z,12.10
2023-04-29T00:21:09.015Z,12.10
2023-04-29T00:23:37.241Z,12.10
2023-04-29T00:26:05.414Z,12.00
2023-04-29T00:28:33.775Z,12.00
2023-04-29T00:31:01.748Z,12.00
2023-04-29T00:33:35.170Z,11.90
2023-04-29T00:36:04.723Z,11.90
2023-04-29T00:38:32.650Z,11.90
2023-04-29T00:41:02.133Z,11.90
2023-04-29T00:43:30.074Z,11.90
2023-04-29T00:46:00.350Z,11.80
2023-04-29T00:48:28.353Z,11.80
2023-04-29T00:50:56.341Z,11.80
2023-04-29T00:53:25.753Z,11.80
2023-04-29T00:55:53.946Z,11.80
2023-04-29T00:58:22.770Z,11.70
2023-04-29T01:00:50.974Z,11.70
2023-04-29T01:03:20.653Z,11.70
2023-04-29T01:05:58.024Z,11.70
2023-04-29T01:08:39.041Z,11.70
2023-04-29T01:11:10.829Z,11.70
2023-04-29T01:13:44.246Z,11.70
2023-04-29T01:16:18.391Z,11.70
2023-04-29T01:18:50.988Z,11.60
2023-04-29T01:21:19.264Z,11.60
2023-04-29T01:23:53.668Z,11.60
2023-04-29T01:26:21.912Z,11.60
2023-04-29T01:29:02.504Z,11.60
2023-04-29T01:31:41.633Z,11.50
2023-04-29T01:34:11.857Z,11.50
2023-04-29T01:36:47.977Z,11.50
2023-04-29T01:39:25.956Z,11.40
2023-04-29T01:42:00.834Z,11.40
2023-04-29T01:44:31.722Z,11.40
2023-04-29T01:47:01.998Z,11.30
2023-04-29T01:49:31.037Z,11.30
2023-04-29T01:51:58.960Z,11.30
2023-04-29T01:54:28.315Z,11.30
2023-04-29T01:56:57.364Z,11.20
2023-04-29T01:59:26.402Z,11.20
2023-04-29T02:01:57.078Z,11.20
2023-04-29T02:04:25.467Z,11.20
2023-04-29T02:06:53.720Z,11.10
2023-04-29T02:09:21.747Z,11.10
2023-04-29T02:11:51.160Z,11.00
2023-04-29T02:14:19.131Z,11.00
2023-04-29T02:16:47.290Z,11.00
2023-04-29T02:19:15.502Z,10.90
2023-04-29T02:21:43.892Z,10.90
2023-04-29T02:24:11.977Z,10.90
2023-04-29T02:26:39.998Z,10.90
2023-04-29T02:29:09.394Z,10.80
2023-04-29T02:31:38.206Z,10.80
2023-04-29T02:34:06.213Z,10.80
2023-04-29T02:36:34.175Z,10.80
2023-04-29T02:39:02.282Z,10.80
2023-04-29T02:41:30.446Z,10.80
2023-04-29T02:43:58.473Z,10.80
2023-04-29T02:46:27.918Z,10.80
2023-04-29T02:48:56.008Z,10.70
2023-04-29T02:51:24.159Z,10.70
2023-04-29T02:53:52.190Z,10.70
2023-04-29T02:56:20.134Z,10.70
2023-04-29T02:58:48.061Z,10.70
2023-04-29T03:01:16.321Z,10.70
2023-04-29T03:03:45.775Z,10.60
2023-04-29T03:06:13.936Z,10.60
2023-04-29T03:08:41.938Z,10.60
2023-04-29T03:11:09.983Z,10.60
2023-04-29T03:13:37.961Z,10.50
2023-04-29T03:16:06.772Z,10.60
2023-04-29T03:18:34.750Z,10.60
2023-04-29T03:21:04.715Z,10.50
2023-04-29T03:23:33.010Z,10.50
2023-04-29T03:26:01.338Z,10.50
2023-04-29T03:28:29.331Z,10.50
2023-04-29T03:30:59.043Z,10.50
2023-04-29T03:33:27.029Z,10.50
2023-04-29T03:35:55.761Z,10.50
2023-04-29T03:38:25.974Z,10.50
2023-04-29T03:40:53.971Z,10.50
2023-04-29T03:43:22.005Z,10.50
2023-04-29T03:45:49.958Z,10.50
2023-04-29T03:48:18.028Z,10.50
2023-04-29T03:50:45.998Z,10.50
2023-04-29T03:53:14.373Z,10.50
2023-04-29T03:55:43.692Z,10.50
2023-04-29T03:58:11.709Z,10.50
2023-04-29T04:00:39.776Z,10.50
2023-04-29T04:03:08.261Z,10.50
2023-04-29T04:05:36.442Z,10.50
2023-04-29T04:08:04.485Z,10.50
2023-04-29T04:10:32.422Z,10.50
2023-04-29T04:13:01.863Z,10.50
2023-04-29T04:15:29.815Z,10.50
2023-04-29T04:17:57.939Z,10.40
2023-04-29T04:20:26.061Z,10.50
2023-04-29T04:22:54.822Z,10.50
2023-04-29T04:25:22.852Z,10.50
2023-04-29T04:27:50.879Z,10.50
2023-04-29T04:30:20.345Z,10.40
2023-04-29T04:32:48.384Z,10.40
2023-04-29T04:35:16.552Z,10.40
2023-04-29T04:37:44.697Z,10.40
2023-04-29T04:40:13.792Z,10.40
2023-04-29T04:42:41.779Z,10.40
2023-04-29T04:45:11.465Z,10.40
2023-04-29T04:47:41.982Z,10.30
2023-04-29T04:50:10.510Z,10.30
2023-04-29T04:52:38.469Z,10.30
2023-04-29T04:55:07.067Z,10.30
2023-04-29T04:57:35.212Z,10.30
2023-04-29T05:00:04.254Z,10.30
2023-04-29T05:02:32.306Z,10.30
2023-04-29T05:05:01.684Z,10.30
2023-04-29T05:07:29.718Z,10.30
2023-04-29T05:09:57.870Z,10.20
2023-04-29T05:12:30.537Z,10.20
2023-04-29T05:14:58.570Z,10.20
2023-04-29T05:17:26.819Z,10.20
2023-04-29T05:19:54.951Z,10.20
2023-04-29T05:22:24.478Z,10.20
2023-04-29T05:24:54.319Z,10.30
2023-04-29T05:27:22.441Z,10.30
2023-04-29T05:29:50.715Z,10.30
2023-04-29T05:32:18.916Z,10.30
2023-04-29T05:34:46.906Z,10.30
2023-04-29T05:37:15.023Z,10.30
2023-04-29T05:39:44.440Z,10.30
2023-04-29T05:42:12.618Z,10.30
2023-04-29T05:44:41.087Z,10.30
2023-04-29T05:47:09.049Z,10.30
2023-04-29T05:49:37.060Z,10.30
2023-04-29T05:52:06.581Z,10.30
2023-04-29T05:54:34.645Z,10.20
2023-04-29T05:57:04.368Z,10.30
2023-04-29T05:59:33.696Z,10.30
2023-04-29T06:02:01.866Z,10.20
2023-04-29T06:04:30.237Z,10.20
2023-04-29T06:06:58.617Z,10.20
2023-04-29T06:09:28.132Z,10.20
2023-04-29T06:11:57.964Z,10.20
2023-04-29T06:14:27.526Z,10.20
2023-04-29T06:16:56.104Z,10.30
2023-04-29T06:19:25.137Z,10.30
2023-04-29T06:21:53.208Z,10.30
2023-04-29T06:24:21.186Z,10.30
2023-04-29T06:26:49.143Z,10.40
2023-04-29T06:29:17.292Z,10.40
2023-04-29T06:31:46.752Z,10.40
2023-04-29T06:34:14.920Z,10.40
2023-04-29T06:36:43.026Z,10.40
2023-04-29T06:39:11.290Z,10.40
2023-04-29T06:41:40.928Z,10.40
2023-04-29T06:44:09.100Z,10.50
2023-04-29T06:46:37.245Z,10.50
2023-04-29T06:49:07.101Z,10.60
2023-04-29T06:51:35.802Z,10.60
2023-04-29T06:54:04.035Z,10.70
2023-04-29T06:56:32.381Z,10.70
2023-04-29T06:59:00.519Z,10.70
2023-04-29T07:01:28.616Z,10.70
2023-04-29T07:03:56.862Z,10.80
2023-04-29T07:06:26.901Z,10.90
2023-04-29T07:08:56.875Z,11.00
2023-04-29T07:11:26.873Z,11.00
2023-04-29T07:13:55.134Z,11.10
2023-04-29T07:16:26.563Z,11.20
2023-04-29T07:18:54.863Z,11.30
2023-04-29T07:21:23.006Z,11.40
2023-04-29T07:23:52.318Z,11.50
2023-04-29T07:26:21.393Z,11.60
2023-04-29T07:28:50.346Z,11.60
2023-04-29T07:31:18.390Z,11.60
2023-04-29T07:33:47.454Z,11.70
2023-04-29T07:36:15.421Z,11.70
2023-04-29T07:38:43.410Z,11.70
2023-04-29T07:41:12.776Z,11.80
2023-04-29T07:43:42.402Z,11.80
2023-04-29T07:46:10.799Z,11.90
2023-04-29T07:48:40.102Z,12.00
2023-04-29T07:51:08.790Z,12.10
2023-04-29T07:53:36.808Z,12.20
2023-04-29T07:56:07.608Z,12.10
2023-04-29T07:58:36.998Z,12.20
2023-04-29T08:01:09.233Z,12.20
2023-04-29T08:03:40.586Z,12.10
2023-04-29T08:06:09.467Z,12.10
2023-04-29T08:08:37.694Z,12.10
2023-04-29T08:11:06.651Z,12.10
2023-04-29T08:13:36.196Z,12.10
2023-04-29T08:16:04.160Z,12.10
2023-04-29T08:18:32.416Z,12.10
2023-04-29T08:21:01.063Z,12.10
2023-04-29T08:23:29.017Z,12.10
2023-04-29T08:25:57.155Z,12.00
2023-04-29T08:28:25.311Z,12.00
2023-04-29T08:30:55.390Z,12.00
2023-04-29T08:33:23.508Z,12.10
2023-04-29T08:35:59.268Z,12.10
2023-04-29T08:38:28.030Z,12.10
2023-04-29T08:40:56.432Z,12.20
2023-04-29T08:43:24.477Z,12.30
2023-04-29T08:45:53.906Z,12.30
2023-04-29T08:48:22.224Z,12.40
2023-04-29T08:50:51.042Z,12.60
2023-04-29T08:53:19.157Z,12.70
2023-04-29T08:55:48.669Z,12.90
2023-04-29T08:58:17.462Z,12.90
2023-04-29T09:00:46.269Z,13.00
2023-04-29T09:03:24.703Z,13.10
2023-04-29T09:05:56.172Z,13.30
2023-04-29T09:08:25.184Z,13.40
2023-04-29T09:10:53.231Z,13.50
2023-04-29T09:13:25.820Z,13.80
2023-04-29T09:15:54.142Z,13.90
2023-04-29T09:18:46.021Z,14.10
2023-04-29T09:21:21.625Z,14.30
2023-04-29T09:23:52.248Z,14.50
2023-04-29T09:26:20.658Z,14.50
2023-04-29T09:28:49.791Z,14.70
2023-04-29T09:31:29.095Z,14.90
2023-04-29T09:33:59.084Z,15.00
2023-04-29T09:36:45.492Z,15.10
2023-04-29T09:39:16.229Z,15.20
2023-04-29T09:42:00.155Z,15.10
2023-04-29T09:44:32.059Z,15.30
2023-04-29T09:47:03.832Z,15.30
2023-04-29T09:49:35.774Z,15.40
2023-04-29T09:52:05.062Z,15.50
2023-04-29T09:54:34.329Z,15.80
2023-04-29T09:57:05.895Z,16.10
2023-04-29T09:59:36.086Z,16.20
2023-04-29T10:02:09.359Z,16.20
2023-04-29T10:04:43.145Z,16.40
2023-04-29T10:07:15.844Z,16.40
2023-04-29T10:09:46.272Z,16.50
2023-04-29T10:12:18.126Z,16.40
2023-04-29T10:14:58.955Z,16.30
2023-04-29T10:17:40.493Z,16.10
2023-04-29T10:20:16.794Z,16.20
2023-04-29T10:22:48.807Z,16.10
2023-04-29T10:25:18.999Z,16.30
2023-04-29T10:27:48.966Z,16.40
2023-04-29T10:30:19.054Z,16.40
2023-04-29T10:32:51.155Z,16.30
2023-04-29T10:35:25.555Z,16.10
2023-04-29T10:37:55.347Z,15.80
2023-04-29T10:40:29.342Z,15.70
2023-04-29T10:42:57.798Z,15.60
2023-04-29T10:45:27.696Z,15.50
2023-04-29T10:48:20.910Z,15.50
2023-04-29T10:51:10.931Z,15.20
2023-04-29T10:53:59.402Z,15.10
2023-04-29T10:56:38.187Z,15.20
2023-04-29T10:59:06.352Z,15.30
2023-04-29T11:01:48.486Z,15.30
2023-04-29T11:04:17.954Z,15.40
2023-04-29T11:06:52.220Z,15.50
2023-04-29T11:09:22.232Z,15.60
2023-04-29T11:12:03.373Z,15.70
2023-04-29T11:14:36.964Z,15.80
2023-04-29T11:17:09.321Z,15.90
2023-04-29T11:19:38.578Z,16.10
2023-04-29T11:22:27.295Z,16.10
2023-04-29T11:24:57.984Z,16.30
2023-04-29T11:27:27.810Z,16.30
2023-04-29T11:29:58.736Z,16.10
2023-04-29T11:32:28.242Z,15.90
2023-04-29T11:34:56.839Z,15.80
2023-04-29T11:37:28.856Z,15.90
2023-04-29T11:40:02.172Z,16.00
2023-04-29T11:42:30.511Z,16.00
2023-04-29T11:45:00.387Z,16.10
2023-04-29T11:47:30.320Z,16.10
2023-04-29T11:50:06.127Z,16.10
2023-04-29T11:52:37.341Z,16.20
2023-04-29T11:55:06.308Z,16.40
2023-04-29T11:57:34.275Z,16.60
2023-04-29T12:00:02.817Z,16.80
2023-04-29T12:02:31.854Z,17.00
2023-04-29T12:05:01.459Z,17.20
2023-04-29T12:07:29.854Z,17.30
2023-04-29T12:10:00.041Z,17.50
2023-04-29T12:12:29.209Z,17.60
2023-04-29T12:14:57.518Z,17.60
2023-04-29T12:17:26.134Z,17.60
2023-04-29T12:19:54.511Z,17.40
2023-04-29T12:22:22.488Z,17.20
2023-04-29T12:24:54.624Z,17.10
2023-04-29T12:27:25.043Z,17.10
2023-04-29T12:29:54.020Z,16.90
2023-04-29T12:32:24.807Z,16.90
2023-04-29T12:34:53.821Z,16.90
2023-04-29T12:37:23.269Z,16.80
2023-04-29T12:39:52.780Z,16.70
2023-04-29T12:42:20.845Z,16.60
2023-04-29T12:44:50.301Z,16.50
2023-04-29T12:47:18.670Z,16.50
2023-04-29T12:49:48.063Z,16.50
2023-04-29T12:52:16.387Z,16.40
2023-04-29T12:54:44.819Z,16.40
2023-04-29T12:57:14.457Z,16.40
2023-04-29T12:59:42.543Z,16.40
2023-04-29T13:02:12.373Z,16.40
2023-04-29T13:04:40.632Z,16.40
2023-04-29T13:07:08.946Z,16.10
2023-04-29T13:09:38.159Z,16.10
2023-04-29T13:12:09.404Z,15.90
2023-04-29T13:14:37.747Z,15.80
2023-04-29T13:17:06.348Z,15.60
2023-04-29T13:19:50.709Z,15.50
2023-04-29T13:22:20.199Z,15.40
2023-04-29T13:24:48.188Z,15.40
2023-04-29T13:27:16.187Z,15.40
2023-04-29T13:29:44.339Z,15.60
2023-04-29T13:32:12.611Z,15.70
2023-04-29T13:34:43.383Z,15.80
2023-04-29T13:37:11.855Z,15.90
2023-04-29T13:39:39.911Z,16.00
2023-04-29T13:42:08.930Z,15.90
2023-04-29T13:44:51.107Z,15.90
2023-04-29T13:47:25.917Z,15.90
2023-04-29T13:50:44.656Z,15.80
2023-04-29T14:00:45.358Z,15.70
2023-04-29T14:03:08.816Z,15.70
2023-04-29T14:05:39.075Z,15.90
2023-04-29T14:08:07.461Z,16.00
2023-04-29T14:10:36.941Z,16.10
2023-04-29T14:13:05.303Z,16.20
2023-04-29T14:15:33.366Z,16.30
2023-04-29T14:18:01.414Z,16.40
2023-04-29T14:20:29.527Z,16.50
2023-04-29T14:22:58.856Z,16.50
2023-04-29T14:25:28.596Z,16.50
2023-04-29T14:27:57.266Z,16.60
2023-04-29T14:30:25.504Z,16.70
2023-04-29T14:32:53.623Z,16.80
2023-04-29T14:35:21.713Z,16.90
2023-04-29T14:37:50.523Z,17.10
2023-04-29T14:40:20.008Z,17.30
2023-04-29T14:42:47.976Z,17.40
2023-04-29T14:45:17.124Z,17.40
2023-04-29T14:47:45.353Z,17.40
2023-04-29T14:50:13.425Z,17.30
2023-04-29T14:52:41.445Z,17.20
2023-04-29T14:55:09.670Z,17.10
2023-04-29T14:57:39.035Z,17.00
2023-04-29T15:00:08.949Z,17.00
2023-04-29T15:02:36.986Z,17.10
2023-04-29T15:05:05.110Z,16.90
2023-04-29T15:07:33.708Z,16.80
2023-04-29T15:10:01.920Z,16.80
2023-04-29T15:12:29.986Z,16.70
2023-04-29T15:14:59.404Z,16.70
2023-04-29T15:17:27.444Z,16.70
2023-04-29T15:19:55.663Z,16.70
2023-04-29T15:22:23.694Z,17.20
2023-04-29T15:24:52.591Z,17.60
2023-04-29T15:27:21.384Z,17.60
2023-04-29T15:29:49.411Z,17.60
2023-04-29T15:32:19.408Z,17.30
2023-04-29T15:34:47.605Z,17.00
2023-04-29T15:37:15.633Z,16.80
2023-04-29T15:39:43.618Z,16.60
2023-04-29T15:42:11.568Z,16.50
2023-04-29T15:44:39.544Z,16.30
2023-04-29T15:47:07.563Z,16.20
2023-04-29T15:49:36.912Z,16.10
2023-04-29T15:52:05.714Z,16.20
2023-04-29T15:54:33.737Z,16.60
2023-04-29T15:57:03.356Z,16.80
2023-04-29T15:59:31.730Z,16.90
2023-04-29T16:02:00.099Z,16.90
2023-04-29T16:04:28.195Z,16.80
2023-04-29T16:06:57.645Z,16.70
2023-04-29T16:09:25.970Z,16.50
2023-04-29T16:11:54.019Z,16.30
2023-04-29T16:14:22.072Z,16.20
2023-04-29T16:16:50.072Z,16.10
2023-04-29T16:19:18.287Z,15.90
2023-04-29T16:21:46.401Z,15.80
2023-04-29T16:24:16.570Z,15.70
2023-04-29T16:26:44.712Z,15.50
2023-04-29T16:29:13.382Z,15.40
2023-04-29T16:31:41.613Z,15.30
2023-04-29T16:34:09.809Z,15.20
2023-04-29T16:36:37.914Z,15.20
2023-04-29T16:39:06.288Z,15.10
2023-04-29T16:41:36.251Z,15.10
2023-04-29T16:44:04.369Z,15.00
2023-04-29T16:46:32.935Z,15.00
2023-04-29T16:49:01.203Z,14.90
2023-04-29T16:51:29.763Z,14.90
2023-04-29T16:53:57.993Z,14.80
2023-04-29T16:56:26.056Z,14.80
2023-04-29T16:58:57.064Z,14.80
2023-04-29T17:01:25.096Z,14.80
2023-04-29T17:03:53.222Z,14.70
2023-04-29T17:06:21.324Z,14.70
2023-04-29T17:08:51.314Z,14.80
2023-04-29T17:11:19.729Z,14.80
2023-04-29T17:13:47.772Z,14.70
2023-04-29T17:16:17.408Z,14.70
2023-04-29T17:18:45.527Z,14.70
2023-04-29T17:21:13.515Z,14.60
2023-04-29T17:23:41.762Z,14.60
2023-04-29T17:26:11.099Z,14.60
2023-04-29T17:28:39.592Z,14.60
2023-04-29T17:31:07.985Z,14.60
2023-04-29T17:33:39.814Z,14.50
2023-04-29T17:36:08.167Z,14.50
2023-04-29T17:38:36.296Z,14.60
2023-04-29T17:41:04.974Z,14.60
2023-04-29T17:43:35.521Z,14.70
2023-04-29T17:46:05.392Z,14.70
2023-04-29T17:48:33.526Z,14.70
2023-04-29T17:51:03.288Z,14.70
2023-04-29T17:53:34.851Z,14.70
2023-04-29T17:56:02.973Z,14.70
2023-04-29T17:58:30.955Z,14.60
2023-04-29T18:00:59.267Z,14.60
2023-04-29T18:03:30.202Z,14.50
2023-04-29T18:05:58.560Z,14.50
2023-04-29T18:08:28.395Z,14.40
2023-04-29T18:10:56.760Z,14.40
2023-04-29T18:13:27.089Z,14.30
2023-04-29T18:15:56.183Z,14.20
2023-04-29T18:18:24.501Z,14.10
2023-04-29T18:20:53.088Z,14.00
2023-04-29T18:23:22.650Z,13.90
2023-04-29T18:25:52.525Z,13.80
2023-04-29T18:28:25.309Z,13.70
2023-04-29T18:30:55.113Z,13.60
2023-04-29T18:33:24.612Z,13.50
2023-04-29T18:35:54.350Z,13.40
2023-04-29T18:38:22.435Z,13.30
2023-04-29T18:40:52.816Z,13.20
2023-04-29T18:43:24.618Z,13.10
2023-04-29T18:45:53.410Z,13.00
2023-04-29T18:48:21.556Z,12.90
2023-04-29T18:50:52.403Z,12.80
2023-04-29T18:53:21.273Z,12.70
2023-04-29T18:55:49.312Z,12.70
2023-04-29T18:58:18.956Z,12.50
2023-04-29T19:00:47.040Z,12.40
2023-04-29T19:03:15.788Z,12.40
2023-04-29T19:05:44.314Z,12.30
2023-04-29T19:08:12.392Z,12.10
2023-04-29T19:10:40.415Z,12.00
2023-04-29T19:13:08.352Z,11.90
2023-04-29T19:15:38.464Z,11.80
2023-04-29T19:18:07.012Z,11.70
2023-04-29T19:20:35.711Z,11.60
2023-04-29T19:23:03.747Z,11.50
2023-04-29T19:25:31.939Z,11.40
2023-04-29T19:27:59.946Z,11.30
2023-04-29T19:30:27.945Z,11.30
2023-04-29T19:32:57.451Z,11.20
2023-04-29T19:35:25.908Z,11.10
2023-04-29T19:37:54.732Z,11.00
2023-04-29T19:40:22.759Z,10.90
2023-04-29T19:42:50.874Z,10.80
2023-04-29T19:45:18.917Z,10.80
2023-04-29T19:47:48.426Z,10.60
2023-04-29T19:50:17.762Z,10.60
2023-04-29T19:52:46.071Z,10.50
2023-04-29T19:55:14.579Z,10.30
2023-04-29T19:57:42.789Z,10.30
2023-04-29T20:00:14.485Z,10.20
2023-04-29T20:02:42.703Z,10.10
2023-04-29T20:05:11.637Z,10.10
2023-04-29T20:07:41.382Z,10.00
2023-04-29T20:10:10.191Z,10.00
2023-04-29T20:12:38.226Z,9.90
2023-04-29T20:15:07.674Z,9.90
2023-04-29T20:17:37.562Z,9.90
2023-04-29T20:20:08.890Z,9.90
2023-04-29T20:22:36.897Z,9.90
2023-04-29T20:25:07.401Z,10.00
2023-04-29T20:27:35.408Z,9.90
2023-04-29T20:30:03.940Z,9.90
2023-04-29T20:32:32.151Z,9.90
2023-04-29T20:35:00.184Z,9.90
2023-04-29T20:37:28.426Z,9.90
2023-04-29T20:39:56.415Z,9.80
2023-04-29T20:42:25.835Z,9.80
2023-04-29T20:44:53.854Z,9.80
2023-04-29T20:47:21.968Z,9.70
2023-04-29T20:49:50.204Z,9.70
2023-04-29T20:52:18.264Z,9.60
2023-04-29T20:54:46.340Z,9.60
2023-04-29T20:57:14.378Z,9.50
2023-04-29T20:59:43.744Z,9.40
2023-04-29T21:02:12.145Z,9.40
2023-04-29T21:04:40.510Z,9.40
2023-04-29T21:07:08.632Z,9.30
2023-04-29T21:09:36.777Z,9.30
2023-04-29T21:12:05.790Z,9.30
2023-04-29T21:14:33.990Z,9.30
2023-04-29T21:17:03.549Z,9.20
2023-04-29T21:19:31.565Z,9.10
2023-04-29T21:21:59.588Z,9.10
2023-04-29T21:24:28.651Z,9.00
2023-04-29T21:26:56.665Z,9.00
2023-04-29T21:29:24.802Z,9.00
2023-04-29T21:31:52.928Z,8.90
2023-04-29T21:34:22.441Z,8.90
2023-04-29T21:36:50.499Z,8.90
2023-04-29T21:39:18.751Z,8.90
2023-04-29T21:41:47.884Z,8.90
2023-04-29T21:44:16.213Z,8.90
2023-04-29T21:46:44.541Z,8.90
2023-04-29T21:49:12.663Z,8.90
2023-04-29T21:51:42.140Z,8.90
2023-04-29T21:54:10.151Z,8.90
2023-04-29T21:56:38.132Z,8.90
2023-04-29T21:59:06.215Z,9.00
2023-04-29T22:01:49.338Z,9.00
2023-04-29T22:04:17.554Z,9.00
2023-04-29T22:06:47.079Z,9.00
2023-04-29T22:09:16.086Z,8.90
2023-04-29T22:11:44.184Z,8.90
2023-04-29T22:14:12.280Z,8.80
2023-04-29T22:16:40.473Z,8.70
2023-04-29T22:19:08.637Z,8.70
2023-04-29T22:21:38.120Z,8.60
2023-04-29T22:24:07.765Z,8.50
2023-04-29T22:26:35.782Z,8.40
2023-04-29T22:29:04.432Z,8.30
2023-04-29T22:31:32.403Z,8.30
2023-04-29T22:34:00.480Z,8.20
2023-04-29T22:36:28.535Z,8.10
2023-04-29T22:38:56.543Z,8.10
2023-04-29T22:41:26.159Z,8.00
2023-04-29T22:43:57.251Z,7.90
2023-04-29T22:46:25.708Z,7.90
2023-04-29T22:48:53.811Z,7.80
2023-04-29T22:51:21.848Z,7.70
2023-04-29T22:53:49.848Z,7.60
2023-04-29T22:56:17.801Z,7.50
2023-04-29T22:58:47.249Z,7.50
2023-04-29T23:01:15.531Z,7.40
2023-04-29T23:03:43.556Z,7.40
2023-04-29T23:06:11.551Z,7.30
2023-04-29T23:08:39.606Z,7.30
2023-04-29T23:11:07.722Z,7.20
2023-04-29T23:13:35.797Z,7.10
2023-04-29T23:16:05.370Z,7.10
2023-04-29T23:18:33.408Z,7.10
2023-04-29T23:21:01.428Z,7.00
2023-04-29T23:23:29.434Z,7.00
2023-04-29T23:25:57.411Z,7.00
2023-04-29T23:28:25.660Z,6.90
2023-04-29T23:30:54.418Z,6.90
2023-04-29T23:33:23.814Z,6.80
2023-04-29T23:35:52.781Z,6.80
2023-04-29T23:38:21.112Z,6.70
2023-04-29T23:40:49.134Z,6.70
2023-04-29T23:43:17.221Z,6.60
2023-04-29T23:45:46.298Z,6.50
2023-04-29T23:48:15.654Z,6.50
2023-04-29T23:50:47.033Z,6.40
2023-04-29T23:53:15.787Z,6.30
2023-04-29T23:55:44.857Z,6.30
2023-04-29T23:58:12.896Z,6.20
